This is the latest recevied weather packets stored in our database for station/object KM5VY. If no packets are shown the sender has not sent any weather packets the latest 10 day(s).
| Time | Temp. | Humidity | Pressure | Rain* | Wind** | Luminosity | Snow |
|---|---|---|---|---|---|---|---|
| 1777940217 | 18.33° C | 24% | 1012.5 hPa | 0 mm | - | - | - |
| 1777939616 | 18.89° C | 24% | 1012.5 hPa | 0 mm | - | - | - |
| 1777939014 | 18.89° C | 24% | 1012.5 hPa | 0 mm | - | - | - |
| 1777938413 | 18.89° C | 24% | 1012.5 hPa | 0 mm | - | - | - |
| 1777937813 | 19.44° C | 24% | 1012.5 hPa | 0 mm | - | - | - |
| 1777937212 | 19.44° C | 24% | 1012.5 hPa | 0 mm | - | - | - |
| 1777936610 | 20° C | 24% | 1012.5 hPa | 0 mm | - | - | - |
| 1777936009 | 20° C | 24% | 1012.5 hPa | 0 mm | - | - | - |
| 1777935409 | 20.56° C | 24% | 1012.5 hPa | 0 mm | - | - | - |
| 1777934808 | 20.56° C | 24% | 1012.5 hPa | 0 mm | - | - | - |
| 1777934206 | 21.11° C | 24% | 1012.9 hPa | 0 mm | - | - | - |
| 1777933606 | 21.11° C | 24% | 1012.9 hPa | 0 mm | - | - | - |
| 1777933004 | 21.67° C | 24% | 1012.9 hPa | 0 mm | - | - | - |
| 1777932855 | 10° C | 60% | 1015.9 hPa | 0 mm | - | - | - |
| 1777932573 | 10° C | 60% | 1015.9 hPa | 0 mm | - | - | - |
| 1777932403 | 21.67° C | 24% | 1012.9 hPa | 0 mm | - | - | - |
| 1777931803 | 21.67° C | 24% | 1013.2 hPa | 0 mm | - | - | - |
| 1777931202 | 22.22° C | 24% | 1013.5 hPa | 0 mm | - | - | - |
| 1777930601 | 22.22° C | 24% | 1013.5 hPa | 0 mm | - | - | - |
| 1777929999 | 22.22° C | 24% | 1013.5 hPa | 0 mm | - | - | - |
| 1777929399 | 22.78° C | 24% | 1013.5 hPa | 0 mm | - | - | - |
| 1777927596 | 23.33° C | 24% | 1014.2 hPa | 0 mm | - | - | - |
| 1777926994 | 23.33° C | 24% | 1014.6 hPa | 0 mm | - | - | - |
| 1777926395 | 23.89° C | 24% | 1014.9 hPa | 0 mm | - | - | - |
| 1777925793 | 24.44° C | 24% | 1014.6 hPa | 0 mm | - | - | - |
* Rain latest hour (hover to see other rain measurements)
** Current wind speed in m/s (hover to see current wind gust speed)